createdAt,value
2023-04-01T00:01:20.033Z,86.14
2023-04-01T00:03:49.285Z,86.81
2023-04-01T00:06:20.397Z,87.07
2023-04-01T00:08:50.660Z,87.24
2023-04-01T00:11:20.816Z,86.79
2023-04-01T00:13:50.228Z,86.96
2023-04-01T00:16:22.238Z,87.04
2023-04-01T00:18:52.368Z,87.20
2023-04-01T00:21:22.954Z,86.97
2023-04-01T00:23:53.415Z,87.17
2023-04-01T00:26:23.439Z,86.70
2023-04-01T00:28:52.754Z,86.57
2023-04-01T00:31:21.608Z,86.37
2023-04-01T00:33:50.536Z,86.16
2023-04-01T00:36:22.495Z,86.89
2023-04-01T00:38:52.869Z,86.57
2023-04-01T00:41:23.047Z,86.83
2023-04-01T00:44:10.266Z,86.93
2023-04-01T00:46:38.705Z,87.19
2023-04-01T00:49:07.252Z,87.40
2023-04-01T00:51:37.374Z,86.99
2023-04-01T00:54:07.739Z,86.62
2023-04-01T00:56:39.228Z,86.33
2023-04-01T00:59:16.780Z,86.37
2023-04-01T01:01:45.717Z,86.49
2023-04-01T01:04:25.942Z,87.62
2023-04-01T01:07:05.616Z,87.64
2023-04-01T01:09:49.238Z,87.85
2023-04-01T01:12:22.656Z,87.32
2023-04-01T01:15:02.801Z,86.54
2023-04-01T01:17:47.259Z,87.28
2023-04-01T01:21:04.839Z,87.27
2023-04-01T01:24:14.256Z,87.56
2023-04-01T01:27:02.962Z,87.44
2023-04-01T01:30:20.029Z,87.42
2023-04-01T01:33:34.952Z,87.69
2023-04-01T01:36:08.837Z,87.57
2023-04-01T01:38:38.570Z,87.68
2023-04-01T01:41:10.056Z,87.89
2023-04-01T01:43:42.932Z,87.68
2023-04-01T01:46:19.021Z,87.64
2023-04-01T01:48:49.701Z,87.40
2023-04-01T01:51:20.146Z,87.39
2023-04-01T01:53:48.683Z,87.92
2023-04-01T01:56:22.736Z,87.47
2023-04-01T01:58:54.880Z,87.71
2023-04-01T02:01:29.391Z,88.10
2023-04-01T02:04:02.201Z,87.95
2023-04-01T02:06:39.081Z,87.62
2023-04-01T02:09:11.600Z,87.52
2023-04-01T02:11:48.111Z,87.73
2023-04-01T02:14:19.619Z,88.00
2023-04-01T02:16:54.627Z,88.02
2023-04-01T02:19:27.057Z,88.04
2023-04-01T02:22:02.008Z,87.76
2023-04-01T02:24:33.897Z,88.32
2023-04-01T02:27:02.371Z,87.77
2023-04-01T02:29:32.539Z,88.01
2023-04-01T02:32:02.224Z,87.28
2023-04-01T02:34:31.366Z,87.04
2023-04-01T02:37:03.376Z,87.25
2023-04-01T02:39:32.407Z,87.93
2023-04-01T02:42:00.872Z,87.70
2023-04-01T02:44:29.279Z,87.86
2023-04-01T02:46:57.668Z,87.66
2023-04-01T02:49:26.213Z,88.20
2023-04-01T02:51:54.799Z,87.70
2023-04-01T02:54:24.583Z,87.76
2023-04-01T02:56:53.130Z,88.07
2023-04-01T02:59:21.636Z,88.10
2023-04-01T03:01:50.009Z,88.34
2023-04-01T03:04:18.577Z,87.44
2023-04-01T03:06:47.047Z,87.65
2023-04-01T03:09:16.242Z,87.96
2023-04-01T03:11:46.159Z,87.58
2023-04-01T03:14:14.778Z,87.87
2023-04-01T03:16:43.237Z,87.71
2023-04-01T03:19:11.837Z,88.24
2023-04-01T03:21:40.317Z,88.09
2023-04-01T03:24:09.574Z,88.12
2023-04-01T03:26:37.956Z,88.35
2023-04-01T03:29:07.707Z,88.23
2023-04-01T03:31:36.431Z,88.02
2023-04-01T03:34:04.872Z,88.29
2023-04-01T03:36:33.304Z,88.20
2023-04-01T03:39:01.698Z,88.67
2023-04-01T03:41:39.368Z,88.54
2023-04-01T03:44:09.456Z,88.06
2023-04-01T03:46:38.076Z,88.34
2023-04-01T03:49:12.905Z,88.55
2023-04-01T03:51:43.131Z,88.30
2023-04-01T03:54:12.685Z,88.57
2023-04-01T03:56:41.149Z,88.36
2023-04-01T03:59:11.339Z,87.92
2023-04-01T04:01:39.934Z,87.57
2023-04-01T04:04:09.623Z,87.24
2023-04-01T04:06:38.040Z,87.17
2023-04-01T04:09:06.559Z,87.71
2023-04-01T04:11:34.913Z,88.41
2023-04-01T04:14:03.955Z,88.89
2023-04-01T04:16:33.881Z,88.61
2023-04-01T04:19:04.598Z,88.16
2023-04-01T04:21:33.408Z,87.86
2023-04-01T04:24:03.237Z,87.60
2023-04-01T04:26:48.855Z,88.09
2023-04-01T04:29:17.380Z,88.55
2023-04-01T04:31:47.394Z,88.72
2023-04-01T04:34:15.850Z,88.36
2023-04-01T04:36:45.376Z,87.91
2023-04-01T04:39:14.092Z,88.50
2023-04-01T04:41:44.465Z,87.79
2023-04-01T04:44:12.929Z,87.56
2023-04-01T04:46:41.941Z,87.88
2023-04-01T04:49:20.385Z,87.33
2023-04-01T04:51:49.306Z,87.66
2023-04-01T04:54:24.009Z,87.10
2023-04-01T04:56:58.258Z,88.42
2023-04-01T04:59:28.438Z,88.23
2023-04-01T05:02:05.702Z,87.09
2023-04-01T05:04:38.834Z,86.75
2023-04-01T05:07:10.925Z,87.02
2023-04-01T05:09:39.319Z,86.71
2023-04-01T05:12:08.317Z,86.43
2023-04-01T05:14:55.376Z,86.79
2023-04-01T05:17:23.953Z,87.01
2023-04-01T05:19:53.872Z,87.03
2023-04-01T05:22:22.525Z,86.59
2023-04-01T05:24:51.141Z,86.11
2023-04-01T05:27:19.761Z,87.50
2023-04-01T05:29:48.358Z,87.51
2023-04-01T05:32:40.684Z,87.52
2023-04-01T05:35:11.368Z,87.18
2023-04-01T05:37:39.798Z,86.90
2023-04-01T05:40:10.407Z,86.05
2023-04-01T05:42:38.997Z,85.75
2023-04-01T05:45:10.008Z,85.46
2023-04-01T05:48:08.049Z,85.68
2023-04-01T05:50:44.128Z,85.32
2023-04-01T05:53:13.676Z,85.64
2023-04-01T05:55:44.695Z,86.64
2023-04-01T05:58:13.264Z,86.75
2023-04-01T06:00:44.969Z,86.60
2023-04-01T06:03:15.016Z,86.42
2023-04-01T06:05:46.207Z,86.16
2023-04-01T06:08:19.795Z,85.62
2023-04-01T06:11:06.931Z,85.68
2023-04-01T06:14:03.794Z,85.08
2023-04-01T06:16:47.181Z,85.27
2023-04-01T06:19:30.322Z,85.87
2023-04-01T06:22:26.498Z,85.88
2023-04-01T06:25:36.837Z,85.71
2023-04-01T06:28:43.522Z,85.80
2023-04-01T06:31:28.465Z,85.21
2023-04-01T06:34:17.925Z,85.48
2023-04-01T06:37:12.177Z,84.89
2023-04-01T06:40:05.460Z,85.51
2023-04-01T06:43:02.495Z,84.88
2023-04-01T06:45:57.160Z,85.11
2023-04-01T06:49:05.534Z,84.52
2023-04-01T06:51:53.666Z,84.54
2023-04-01T06:54:46.820Z,83.83
2023-04-01T06:57:54.401Z,84.67
2023-04-01T07:00:32.174Z,84.90
2023-04-01T07:03:16.840Z,84.33
2023-04-01T07:05:46.234Z,84.44
2023-04-01T07:08:23.337Z,84.13
2023-04-01T07:10:58.960Z,84.71
2023-04-01T07:13:51.672Z,83.93
2023-04-01T07:16:26.615Z,83.20
2023-04-01T07:19:03.320Z,83.17
2023-04-01T07:21:51.924Z,83.01
2023-04-01T07:24:34.593Z,82.90
2023-04-01T07:27:14.384Z,82.53
2023-04-01T07:29:44.517Z,82.16
2023-04-01T07:32:36.501Z,82.28
2023-04-01T07:35:20.633Z,82.54
2023-04-01T07:38:08.456Z,82.30
2023-04-01T07:40:47.981Z,81.77
2023-04-01T07:43:58.390Z,81.26
2023-04-01T07:46:51.650Z,81.69
2023-04-01T07:49:28.341Z,81.68
2023-04-01T07:52:04.186Z,81.75
2023-04-01T07:54:45.650Z,81.58
2023-04-01T07:57:21.736Z,81.11
2023-04-01T08:00:05.283Z,81.12
2023-04-01T08:03:32.769Z,79.99
2023-04-01T08:06:08.887Z,80.20
2023-04-01T08:08:53.704Z,79.46
2023-04-01T08:12:14.616Z,79.21
2023-04-01T08:15:18.716Z,79.51
2023-04-01T08:18:25.953Z,80.18
2023-04-01T08:21:00.407Z,80.63
2023-04-01T08:23:32.407Z,79.92
2023-04-01T08:26:08.562Z,79.50
2023-04-01T08:28:46.894Z,78.86
2023-04-01T08:31:23.357Z,77.66
2023-04-01T08:33:54.999Z,78.13
2023-04-01T08:36:28.949Z,79.01
2023-04-01T08:39:17.831Z,79.05
2023-04-01T08:42:42.128Z,78.84
2023-04-01T08:45:41.058Z,78.74
2023-04-01T08:48:47.302Z,79.34
2023-04-01T08:51:49.611Z,79.23
2023-04-01T08:55:15.961Z,79.43
2023-04-01T08:58:50.502Z,80.03
2023-04-01T09:01:48.682Z,79.40
2023-04-01T09:05:01.675Z,79.98
2023-04-01T09:07:46.148Z,79.52
2023-04-01T09:10:36.847Z,79.73
2023-04-01T09:14:22.260Z,79.68
2023-04-01T09:17:44.784Z,79.50
2023-04-01T09:20:45.241Z,79.63
2023-04-01T09:23:38.873Z,79.77
2023-04-01T09:26:46.671Z,79.62
2023-04-01T09:29:33.038Z,78.72
2023-04-01T09:32:49.019Z,78.37
2023-04-01T09:35:33.757Z,79.16
2023-04-01T09:38:22.689Z,79.35
2023-04-01T09:40:58.858Z,79.31
2023-04-01T09:43:59.069Z,80.16
2023-04-01T09:47:03.184Z,80.33
2023-04-01T09:49:58.025Z,80.53
2023-04-01T09:52:47.480Z,80.12
2023-04-01T09:56:33.122Z,79.59
2023-04-01T09:59:47.550Z,80.11
2023-04-01T10:03:24.543Z,80.10
2023-04-01T10:06:27.370Z,80.18
2023-04-01T10:09:58.822Z,80.50
2023-04-01T10:13:25.815Z,80.98
2023-04-01T10:16:42.537Z,81.48
2023-04-01T10:20:09.276Z,80.90
2023-04-01T10:23:15.189Z,80.48
2023-04-01T10:26:40.789Z,80.15
2023-04-01T10:30:27.272Z,79.62
2023-04-01T10:33:48.940Z,79.76
2023-04-01T10:36:52.895Z,79.85
2023-04-01T10:39:59.985Z,79.10
2023-04-01T10:43:49.441Z,79.24
2023-04-01T10:47:19.267Z,78.82
2023-04-01T10:50:16.953Z,79.11
2023-04-01T10:53:30.230Z,79.74
2023-04-01T10:56:48.647Z,81.69
2023-04-01T11:00:20.457Z,80.96
2023-04-01T11:04:10.496Z,80.75
2023-04-01T11:07:29.987Z,81.34
2023-04-01T11:10:49.347Z,81.51
2023-04-01T11:13:57.211Z,82.00
2023-04-01T11:17:18.473Z,82.40
2023-04-01T11:20:50.037Z,82.15
2023-04-01T11:23:58.326Z,81.81
2023-04-01T11:26:55.416Z,81.50
2023-04-01T11:30:05.313Z,81.21
2023-04-01T11:32:50.160Z,80.63
2023-04-01T11:35:40.129Z,80.24
2023-04-01T11:38:28.769Z,80.80
2023-04-01T11:41:16.102Z,81.72
2023-04-01T11:44:20.941Z,81.32
2023-04-01T11:47:28.092Z,81.11
2023-04-01T11:50:17.918Z,81.25
2023-04-01T11:53:21.212Z,81.26
2023-04-01T11:56:03.971Z,81.36
2023-04-01T11:59:15.955Z,81.00
2023-04-01T12:02:01.721Z,81.20
2023-04-01T12:05:31.152Z,81.32
2023-04-01T12:08:30.472Z,81.41
2023-04-01T12:11:07.248Z,81.14
2023-04-01T12:13:47.934Z,81.14
2023-04-01T12:16:52.626Z,80.49
2023-04-01T12:19:31.675Z,80.43
2023-04-01T12:22:22.562Z,80.22
2023-04-01T12:24:57.756Z,80.42
2023-04-01T12:27:41.736Z,80.50
2023-04-01T12:30:44.729Z,80.79
2023-04-01T12:33:55.324Z,81.84
2023-04-01T12:36:45.469Z,81.95
2023-04-01T12:39:46.820Z,81.54
2023-04-01T12:42:34.899Z,81.86
2023-04-01T12:45:35.557Z,81.87
2023-04-01T12:48:47.503Z,81.39
2023-04-01T12:51:39.222Z,81.56
2023-04-01T12:54:57.525Z,81.91
2023-04-01T12:58:18.159Z,81.82
2023-04-01T13:01:37.188Z,81.72
2023-04-01T13:04:47.040Z,81.76
2023-04-01T13:07:35.057Z,82.18
2023-04-01T13:10:16.062Z,82.16
2023-04-01T13:13:11.510Z,81.74
2023-04-01T13:15:47.451Z,81.31
2023-04-01T13:18:30.588Z,81.85
2023-04-01T13:21:10.244Z,82.78
2023-04-01T13:23:55.348Z,82.07
2023-04-01T13:26:34.900Z,81.86
2023-04-01T13:29:14.027Z,82.02
2023-04-01T13:31:59.368Z,80.79
2023-04-01T13:34:41.963Z,80.08
2023-04-01T13:37:37.012Z,80.21
2023-04-01T13:40:28.057Z,80.16
2023-04-01T13:43:04.424Z,80.09
2023-04-01T13:45:48.569Z,79.99
2023-04-01T13:48:32.594Z,79.82
2023-04-01T13:52:01.296Z,78.81
2023-04-01T13:55:04.307Z,79.84
2023-04-01T13:58:13.331Z,79.67
2023-04-01T14:00:54.109Z,79.42
2023-04-01T14:03:34.241Z,79.62
2023-04-01T14:06:18.523Z,80.04
2023-04-01T14:09:41.667Z,80.18
2023-04-01T14:12:26.706Z,80.73
2023-04-01T14:15:20.669Z,80.89
2023-04-01T14:18:32.389Z,81.12
2023-04-01T14:21:19.940Z,81.26
2023-04-01T14:24:24.471Z,81.33
2023-04-01T14:27:42.151Z,81.40
2023-04-01T14:30:29.538Z,82.10
2023-04-01T14:33:09.349Z,81.98
2023-04-01T14:35:47.715Z,82.26
2023-04-01T14:38:37.521Z,82.41
2023-04-01T14:41:21.450Z,82.64
2023-04-01T14:44:13.739Z,82.93
2023-04-01T14:47:20.557Z,82.88
2023-04-01T14:49:53.138Z,82.48
2023-04-01T14:52:29.978Z,82.98
2023-04-01T14:55:00.500Z,82.58
2023-04-01T14:57:32.287Z,82.56
2023-04-01T15:00:15.672Z,82.83
2023-04-01T15:03:02.360Z,82.89
2023-04-01T15:05:41.332Z,84.05
2023-04-01T15:08:20.154Z,84.07
2023-04-01T15:11:22.527Z,83.53
2023-04-01T15:14:23.497Z,83.04
2023-04-01T15:17:08.368Z,82.60
2023-04-01T15:19:53.333Z,82.16
2023-04-01T15:22:58.032Z,81.74
2023-04-01T15:25:46.137Z,81.96
2023-04-01T15:28:32.025Z,82.28
2023-04-01T15:31:08.416Z,82.42
2023-04-01T15:33:55.092Z,83.28
2023-04-01T15:36:40.322Z,83.41
2023-04-01T15:39:17.814Z,83.70
2023-04-01T15:42:09.518Z,84.10
2023-04-01T15:45:00.834Z,84.13
2023-04-01T15:47:42.077Z,83.92
2023-04-01T15:50:48.147Z,84.99
2023-04-01T15:53:32.943Z,84.86
2023-04-01T15:56:30.462Z,84.80
2023-04-01T15:59:16.990Z,84.51
2023-04-01T16:01:57.365Z,84.55
2023-04-01T16:04:46.326Z,84.27
2023-04-01T16:07:46.543Z,83.76
2023-04-01T16:10:41.902Z,83.96
2023-04-01T16:13:34.303Z,84.04
2023-04-01T16:16:14.433Z,83.83
2023-04-01T16:19:14.426Z,84.92
2023-04-01T16:21:50.512Z,84.74
2023-04-01T16:24:32.726Z,85.86
2023-04-01T16:27:07.881Z,85.98
2023-04-01T16:29:48.480Z,86.39
2023-04-01T16:32:39.743Z,86.82
2023-04-01T16:35:32.507Z,86.23
2023-04-01T16:38:11.648Z,86.24
2023-04-01T16:40:49.350Z,86.52
2023-04-01T16:43:28.226Z,86.55
2023-04-01T16:46:20.124Z,86.09
2023-04-01T16:49:05.317Z,85.81
2023-04-01T16:51:48.210Z,86.37
2023-04-01T16:54:30.072Z,85.61
2023-04-01T16:57:19.614Z,85.60
2023-04-01T16:59:58.549Z,85.45
2023-04-01T17:02:32.342Z,85.93
2023-04-01T17:05:08.481Z,86.08
2023-04-01T17:07:49.352Z,86.05
2023-04-01T17:10:44.546Z,85.29
2023-04-01T17:13:49.604Z,85.47
2023-04-01T17:16:57.506Z,85.87
2023-04-01T17:19:43.559Z,85.82
2023-04-01T17:22:31.093Z,85.60
2023-04-01T17:25:25.448Z,85.20
2023-04-01T17:28:05.046Z,85.75
2023-04-01T17:30:40.663Z,85.52
2023-04-01T17:33:42.853Z,85.87
2023-04-01T17:36:30.472Z,85.61
2023-04-01T17:39:17.639Z,85.36
2023-04-01T17:41:54.630Z,85.61
2023-04-01T17:44:47.405Z,85.95
2023-04-01T17:47:40.813Z,86.85
2023-04-01T17:50:31.005Z,86.26
2023-04-01T17:53:16.679Z,86.58
2023-04-01T17:56:01.140Z,86.23
2023-04-01T17:58:36.449Z,86.22
2023-04-01T18:01:28.159Z,86.18
2023-04-01T18:04:39.018Z,85.64
2023-04-01T18:07:38.437Z,85.25
2023-04-01T18:10:29.637Z,85.03
2023-04-01T18:13:32.583Z,85.50
2023-04-01T18:16:20.991Z,86.15
2023-04-01T18:19:00.929Z,85.88
2023-04-01T18:21:45.190Z,86.00
2023-04-01T18:24:24.238Z,86.59
2023-04-01T18:27:04.017Z,86.66
2023-04-01T18:29:43.392Z,86.25
2023-04-01T18:32:36.235Z,86.44
2023-04-01T18:35:23.399Z,86.47
2023-04-01T18:37:59.680Z,86.83
2023-04-01T18:40:34.672Z,86.36
2023-04-01T18:43:18.864Z,86.37
2023-04-01T18:45:55.825Z,86.37
2023-04-01T18:48:52.529Z,85.66
2023-04-01T18:51:28.806Z,85.92
2023-04-01T18:54:05.045Z,86.20
2023-04-01T18:56:38.366Z,86.34
2023-04-01T18:59:12.881Z,86.02
2023-04-01T19:01:49.715Z,85.80
2023-04-01T19:04:28.871Z,86.12
2023-04-01T19:07:01.634Z,86.06
2023-04-01T19:09:45.649Z,85.97
2023-04-01T19:12:43.906Z,86.27
2023-04-01T19:15:33.207Z,86.07
2023-04-01T19:18:49.564Z,85.98
2023-04-01T19:21:24.143Z,85.91
2023-04-01T19:24:46.629Z,85.63
2023-04-01T19:27:32.679Z,84.66
2023-04-01T19:30:30.366Z,85.35
2023-04-01T19:33:12.661Z,85.66
2023-04-01T19:35:49.588Z,85.74
2023-04-01T19:38:28.846Z,85.51
2023-04-01T19:41:03.378Z,85.30
2023-04-01T19:43:53.981Z,85.20
2023-04-01T19:46:32.820Z,84.98
2023-04-01T19:49:38.506Z,85.28
2023-04-01T19:52:16.879Z,85.14
2023-04-01T19:54:51.888Z,85.59
2023-04-01T19:57:34.467Z,86.23
2023-04-01T20:00:09.943Z,86.06
2023-04-01T20:03:17.098Z,86.25
2023-04-01T20:06:03.077Z,86.47
2023-04-01T20:08:41.214Z,86.54
2023-04-01T20:11:33.105Z,85.66
2023-04-01T20:14:21.178Z,85.38
2023-04-01T20:17:03.658Z,85.91
2023-04-01T20:19:41.316Z,85.64
2023-04-01T20:22:29.783Z,85.71
2023-04-01T20:25:07.107Z,85.35
2023-04-01T20:27:42.080Z,85.32
2023-04-01T20:31:02.492Z,85.26
2023-04-01T20:34:01.260Z,85.34
2023-04-01T20:36:38.281Z,85.22
2023-04-01T20:39:55.148Z,85.45
2023-04-01T20:42:43.234Z,85.02
2023-04-01T20:45:37.323Z,84.89
2023-04-01T20:48:33.096Z,85.25
2023-04-01T20:51:07.700Z,85.17
2023-04-01T20:53:42.985Z,85.01
2023-04-01T20:56:43.579Z,85.07
2023-04-01T20:59:47.189Z,84.96
2023-04-01T21:02:38.066Z,84.12
2023-04-01T21:05:46.992Z,83.88
2023-04-01T21:08:27.180Z,84.53
2023-04-01T21:11:06.126Z,85.15
2023-04-01T21:13:54.077Z,85.18
2023-04-01T21:16:38.455Z,84.79
2023-04-01T21:19:27.820Z,85.01
2023-04-01T21:22:32.293Z,85.16
2023-04-01T21:25:32.867Z,84.90
2023-04-01T21:28:39.974Z,85.20
2023-04-01T21:31:29.352Z,84.55
2023-04-01T21:34:37.127Z,84.43
2023-04-01T21:37:49.481Z,84.31
2023-04-01T21:41:04.879Z,84.77
2023-04-01T21:44:06.193Z,84.56
2023-04-01T21:47:43.854Z,83.64
2023-04-01T21:51:05.966Z,84.39
2023-04-01T21:54:24.432Z,83.95
2023-04-01T21:57:40.106Z,84.12
2023-04-01T22:00:27.828Z,84.26
2023-04-01T22:03:52.905Z,85.10
2023-04-01T22:06:29.950Z,84.93
2023-04-01T22:09:13.622Z,85.02
2023-04-01T22:11:57.062Z,84.39
2023-04-01T22:14:33.614Z,84.71
2023-04-01T22:17:14.744Z,84.63
2023-04-01T22:19:54.124Z,85.14
2023-04-01T22:22:29.918Z,84.52
2023-04-01T22:25:09.831Z,84.85
2023-04-01T22:27:46.937Z,85.03
2023-04-01T22:30:22.653Z,84.81
2023-04-01T22:32:55.128Z,84.57
2023-04-01T22:35:37.134Z,84.44
2023-04-01T22:38:23.677Z,84.51
2023-04-01T22:41:02.967Z,83.91
2023-04-01T22:43:39.369Z,84.02
2023-04-01T22:46:50.028Z,84.03
2023-04-01T22:49:25.545Z,84.11
2023-04-01T22:51:59.806Z,83.55
2023-04-01T22:54:34.731Z,83.74
2023-04-01T22:57:10.660Z,84.19
2023-04-01T22:59:47.057Z,83.72
2023-04-01T23:02:20.708Z,83.87
2023-04-01T23:04:57.795Z,83.47
2023-04-01T23:07:47.984Z,83.79
2023-04-01T23:10:24.479Z,83.82
2023-04-01T23:12:57.848Z,83.96
2023-04-01T23:15:27.296Z,84.67
2023-04-01T23:18:28.144Z,84.02
2023-04-01T23:21:12.173Z,84.08
2023-04-01T23:23:55.378Z,84.30
2023-04-01T23:26:32.107Z,84.89
2023-04-01T23:29:02.626Z,84.36
2023-04-01T23:31:38.434Z,84.56
2023-04-01T23:34:30.066Z,84.52
2023-04-01T23:37:03.037Z,84.63
2023-04-01T23:39:36.733Z,84.43
2023-04-01T23:42:08.796Z,84.22
2023-04-01T23:44:39.120Z,84.09
2023-04-01T23:47:10.128Z,84.43
2023-04-01T23:49:42.509Z,84.73
2023-04-01T23:52:22.227Z,84.10
2023-04-01T23:54:55.633Z,83.81
2023-04-01T23:57:31.061Z,82.90
